sensor_id;sensor_type;location;lat;lon;timestamp;temperature;humidity
23731;DHT22;12046;44.702;10.622;2023-07-28T00:00:59;23.90;94.80
23731;DHT22;12046;44.702;10.622;2023-07-28T00:03:25;23.90;94.90
23731;DHT22;12046;44.702;10.622;2023-07-28T00:05:54;23.80;95.00
23731;DHT22;12046;44.702;10.622;2023-07-28T00:08:22;23.80;95.00
23731;DHT22;12046;44.702;10.622;2023-07-28T00:10:48;23.70;95.00
23731;DHT22;12046;44.702;10.622;2023-07-28T00:13:34;23.60;95.10
23731;DHT22;12046;44.702;10.622;2023-07-28T00:16:00;23.50;95.20
23731;DHT22;12046;44.702;10.622;2023-07-28T00:18:26;23.40;95.30
23731;DHT22;12046;44.702;10.622;2023-07-28T00:20:57;23.30;95.30
23731;DHT22;12046;44.702;10.622;2023-07-28T00:23:24;23.30;95.40
23731;DHT22;12046;44.702;10.622;2023-07-28T00:25:53;23.20;95.50
23731;DHT22;12046;44.702;10.622;2023-07-28T00:28:19;23.20;95.60
23731;DHT22;12046;44.702;10.622;2023-07-28T00:30:48;23.10;95.70
23731;DHT22;12046;44.702;10.622;2023-07-28T00:33:19;23.10;95.70
23731;DHT22;12046;44.702;10.622;2023-07-28T00:35:45;23.10;95.80
23731;DHT22;12046;44.702;10.622;2023-07-28T00:38:14;23.10;95.80
23731;DHT22;12046;44.702;10.622;2023-07-28T00:40:40;23.10;95.80
23731;DHT22;12046;44.702;10.622;2023-07-28T00:43:08;23.00;95.80
23731;DHT22;12046;44.702;10.622;2023-07-28T00:45:35;22.90;95.90
23731;DHT22;12046;44.702;10.622;2023-07-28T00:48:03;22.90;95.90
23731;DHT22;12046;44.702;10.622;2023-07-28T00:50:33;22.80;96.00
23731;DHT22;12046;44.702;10.622;2023-07-28T00:53:05;22.80;96.30
23731;DHT22;12046;44.702;10.622;2023-07-28T00:55:34;22.80;96.10
23731;DHT22;12046;44.702;10.622;2023-07-28T00:58:06;22.80;96.20
23731;DHT22;12046;44.702;10.622;2023-07-28T01:00:32;22.80;96.20
23731;DHT22;12046;44.702;10.622;2023-07-28T01:03:01;22.80;96.50
23731;DHT22;12046;44.702;10.622;2023-07-28T01:05:48;22.80;96.30
23731;DHT22;12046;44.702;10.622;2023-07-28T01:08:29;22.80;96.30
23731;DHT22;12046;44.702;10.622;2023-07-28T01:10:55;22.80;96.30
23731;DHT22;12046;44.702;10.622;2023-07-28T01:13:27;22.80;96.30
23731;DHT22;12046;44.702;10.622;2023-07-28T01:15:55;22.80;96.30
23731;DHT22;12046;44.702;10.622;2023-07-28T01:18:23;22.80;96.30
23731;DHT22;12046;44.702;10.622;2023-07-28T01:20:50;22.80;96.30
23731;DHT22;12046;44.702;10.622;2023-07-28T01:26:03;22.80;96.30
23731;DHT22;12046;44.702;10.622;2023-07-28T01:28:33;22.80;96.30
23731;DHT22;12046;44.702;10.622;2023-07-28T01:31:01;22.80;96.30
23731;DHT22;12046;44.702;10.622;2023-07-28T01:33:27;22.70;96.40
23731;DHT22;12046;44.702;10.622;2023-07-28T01:35:53;22.70;96.40
23731;DHT22;12046;44.702;10.622;2023-07-28T01:38:19;22.70;96.40
23731;DHT22;12046;44.702;10.622;2023-07-28T01:40:45;22.70;96.50
23731;DHT22;12046;44.702;10.622;2023-07-28T01:43:11;22.70;96.50
23731;DHT22;12046;44.702;10.622;2023-07-28T01:45:37;22.70;96.60
23731;DHT22;12046;44.702;10.622;2023-07-28T01:48:02;22.70;96.90
23731;DHT22;12046;44.702;10.622;2023-07-28T01:50:28;22.70;96.60
23731;DHT22;12046;44.702;10.622;2023-07-28T01:52:54;22.70;96.60
23731;DHT22;12046;44.702;10.622;2023-07-28T01:55:20;22.70;96.50
23731;DHT22;12046;44.702;10.622;2023-07-28T01:58:00;22.70;96.50
23731;DHT22;12046;44.702;10.622;2023-07-28T02:00:26;22.70;96.50
23731;DHT22;12046;44.702;10.622;2023-07-28T02:02:53;22.70;96.50
23731;DHT22;12046;44.702;10.622;2023-07-28T02:05:20;22.60;96.50
23731;DHT22;12046;44.702;10.622;2023-07-28T02:07:46;22.60;96.50
23731;DHT22;12046;44.702;10.622;2023-07-28T02:10:12;22.60;96.60
23731;DHT22;12046;44.702;10.622;2023-07-28T02:12:38;22.60;96.60
23731;DHT22;12046;44.702;10.622;2023-07-28T02:15:08;22.50;96.70
23731;DHT22;12046;44.702;10.622;2023-07-28T02:17:34;22.50;96.70
23731;DHT22;12046;44.702;10.622;2023-07-28T02:20:00;22.50;96.70
23731;DHT22;12046;44.702;10.622;2023-07-28T02:22:28;22.50;96.70
23731;DHT22;12046;44.702;10.622;2023-07-28T02:24:53;22.50;96.70
23731;DHT22;12046;44.702;10.622;2023-07-28T02:27:19;22.50;96.70
23731;DHT22;12046;44.702;10.622;2023-07-28T02:29:45;22.50;96.80
23731;DHT22;12046;44.702;10.622;2023-07-28T02:32:11;22.50;96.80
23731;DHT22;12046;44.702;10.622;2023-07-28T02:34:37;22.50;96.90
23731;DHT22;12046;44.702;10.622;2023-07-28T02:37:02;22.50;96.80
23731;DHT22;12046;44.702;10.622;2023-07-28T02:39:28;22.50;96.80
23731;DHT22;12046;44.702;10.622;2023-07-28T02:41:54;22.40;96.80
23731;DHT22;12046;44.702;10.622;2023-07-28T02:44:20;22.40;96.70
23731;DHT22;12046;44.702;10.622;2023-07-28T02:46:46;22.40;96.70
23731;DHT22;12046;44.702;10.622;2023-07-28T02:49:11;22.40;96.70
23731;DHT22;12046;44.702;10.622;2023-07-28T02:51:37;22.40;96.60
23731;DHT22;12046;44.702;10.622;2023-07-28T02:54:03;22.30;96.50
23731;DHT22;12046;44.702;10.622;2023-07-28T02:56:29;22.30;96.40
23731;DHT22;12046;44.702;10.622;2023-07-28T02:58:55;22.30;96.30
23731;DHT22;12046;44.702;10.622;2023-07-28T03:01:20;22.20;96.20
23731;DHT22;12046;44.702;10.622;2023-07-28T03:03:46;22.20;96.20
23731;DHT22;12046;44.702;10.622;2023-07-28T03:06:13;22.20;96.10
23731;DHT22;12046;44.702;10.622;2023-07-28T03:08:38;22.20;96.00
23731;DHT22;12046;44.702;10.622;2023-07-28T03:11:04;22.20;95.90
23731;DHT22;12046;44.702;10.622;2023-07-28T03:13:33;22.10;95.90
23731;DHT22;12046;44.702;10.622;2023-07-28T03:15:59;22.10;95.70
23731;DHT22;12046;44.702;10.622;2023-07-28T03:18:24;22.10;95.70
23731;DHT22;12046;44.702;10.622;2023-07-28T03:20:50;22.10;95.60
23731;DHT22;12046;44.702;10.622;2023-07-28T03:23:16;22.10;95.50
23731;DHT22;12046;44.702;10.622;2023-07-28T03:25:42;22.10;95.50
23731;DHT22;12046;44.702;10.622;2023-07-28T03:28:07;22.10;95.50
23731;DHT22;12046;44.702;10.622;2023-07-28T03:30:33;22.10;95.50
23731;DHT22;12046;44.702;10.622;2023-07-28T03:32:59;22.10;95.50
23731;DHT22;12046;44.702;10.622;2023-07-28T03:35:24;22.10;95.50
23731;DHT22;12046;44.702;10.622;2023-07-28T03:37:50;22.10;95.50
23731;DHT22;12046;44.702;10.622;2023-07-28T03:40:16;22.10;95.50
23731;DHT22;12046;44.702;10.622;2023-07-28T03:42:41;22.10;95.40
23731;DHT22;12046;44.702;10.622;2023-07-28T03:45:08;22.10;95.30
23731;DHT22;12046;44.702;10.622;2023-07-28T03:47:33;22.10;95.20
23731;DHT22;12046;44.702;10.622;2023-07-28T03:49:59;22.00;95.10
23731;DHT22;12046;44.702;10.622;2023-07-28T03:52:25;22.00;95.10
23731;DHT22;12046;44.702;10.622;2023-07-28T03:54:51;22.00;95.00
23731;DHT22;12046;44.702;10.622;2023-07-28T03:57:16;22.00;95.00
23731;DHT22;12046;44.702;10.622;2023-07-28T03:59:42;22.00;95.00
23731;DHT22;12046;44.702;10.622;2023-07-28T04:02:08;22.00;94.90
23731;DHT22;12046;44.702;10.622;2023-07-28T04:04:35;21.90;94.80
23731;DHT22;12046;44.702;10.622;2023-07-28T04:07:00;21.90;94.80
23731;DHT22;12046;44.702;10.622;2023-07-28T04:09:27;21.90;94.80
23731;DHT22;12046;44.702;10.622;2023-07-28T04:11:53;21.90;94.80
23731;DHT22;12046;44.702;10.622;2023-07-28T04:14:18;21.90;94.80
23731;DHT22;12046;44.702;10.622;2023-07-28T04:16:44;21.90;94.70
23731;DHT22;12046;44.702;10.622;2023-07-28T04:19:10;21.90;94.60
23731;DHT22;12046;44.702;10.622;2023-07-28T04:21:36;21.90;94.60
23731;DHT22;12046;44.702;10.622;2023-07-28T04:24:06;21.90;94.50
23731;DHT22;12046;44.702;10.622;2023-07-28T04:26:32;21.90;94.40
23731;DHT22;12046;44.702;10.622;2023-07-28T04:28:58;21.90;94.30
23731;DHT22;12046;44.702;10.622;2023-07-28T04:31:25;21.90;94.20
23731;DHT22;12046;44.702;10.622;2023-07-28T04:33:51;22.00;94.20
23731;DHT22;12046;44.702;10.622;2023-07-28T04:36:17;22.00;94.10
23731;DHT22;12046;44.702;10.622;2023-07-28T04:38:43;22.00;94.00
23731;DHT22;12046;44.702;10.622;2023-07-28T04:41:09;22.00;94.00
23731;DHT22;12046;44.702;10.622;2023-07-28T04:43:35;22.00;93.90
23731;DHT22;12046;44.702;10.622;2023-07-28T04:46:00;22.00;93.90
23731;DHT22;12046;44.702;10.622;2023-07-28T04:48:27;22.00;93.90
23731;DHT22;12046;44.702;10.622;2023-07-28T04:50:53;22.00;93.90
23731;DHT22;12046;44.702;10.622;2023-07-28T04:53:19;22.10;93.90
23731;DHT22;12046;44.702;10.622;2023-07-28T04:55:45;22.00;93.70
23731;DHT22;12046;44.702;10.622;2023-07-28T04:58:11;22.10;93.70
23731;DHT22;12046;44.702;10.622;2023-07-28T05:00:37;22.10;93.70
23731;DHT22;12046;44.702;10.622;2023-07-28T05:03:02;22.10;93.70
23731;DHT22;12046;44.702;10.622;2023-07-28T05:05:31;22.10;93.50
23731;DHT22;12046;44.702;10.622;2023-07-28T05:07:57;22.00;93.40
23731;DHT22;12046;44.702;10.622;2023-07-28T05:10:22;22.00;93.40
23731;DHT22;12046;44.702;10.622;2023-07-28T05:12:48;22.00;93.50
23731;DHT22;12046;44.702;10.622;2023-07-28T05:15:15;22.10;93.50
23731;DHT22;12046;44.702;10.622;2023-07-28T05:17:41;22.10;93.40
23731;DHT22;12046;44.702;10.622;2023-07-28T05:20:07;22.20;93.40
23731;DHT22;12046;44.702;10.622;2023-07-28T05:22:32;22.20;93.30
23731;DHT22;12046;44.702;10.622;2023-07-28T05:24:58;22.30;93.30
23731;DHT22;12046;44.702;10.622;2023-07-28T05:27:25;22.40;93.30
23731;DHT22;12046;44.702;10.622;2023-07-28T05:29:50;22.50;93.20
23731;DHT22;12046;44.702;10.622;2023-07-28T05:32:16;22.50;93.10
23731;DHT22;12046;44.702;10.622;2023-07-28T05:34:43;22.50;93.00
23731;DHT22;12046;44.702;10.622;2023-07-28T05:37:09;22.50;93.00
23731;DHT22;12046;44.702;10.622;2023-07-28T05:39:35;22.50;92.90
23731;DHT22;12046;44.702;10.622;2023-07-28T05:42:01;22.50;92.80
23731;DHT22;12046;44.702;10.622;2023-07-28T05:44:28;22.50;92.90
23731;DHT22;12046;44.702;10.622;2023-07-28T05:46:53;22.50;93.00
23731;DHT22;12046;44.702;10.622;2023-07-28T05:49:20;22.50;93.00
23731;DHT22;12046;44.702;10.622;2023-07-28T05:51:45;22.50;93.10
23731;DHT22;12046;44.702;10.622;2023-07-28T05:54:15;22.60;93.10
23731;DHT22;12046;44.702;10.622;2023-07-28T05:56:41;22.60;93.10
23731;DHT22;12046;44.702;10.622;2023-07-28T05:59:07;22.60;93.10
23731;DHT22;12046;44.702;10.622;2023-07-28T06:01:33;22.60;93.10
23731;DHT22;12046;44.702;10.622;2023-07-28T06:03:59;22.60;93.10
23731;DHT22;12046;44.702;10.622;2023-07-28T06:06:25;22.60;93.10
23731;DHT22;12046;44.702;10.622;2023-07-28T06:08:54;22.70;93.10
23731;DHT22;12046;44.702;10.622;2023-07-28T06:11:20;22.70;93.10
23731;DHT22;12046;44.702;10.622;2023-07-28T06:13:47;22.80;93.00
23731;DHT22;12046;44.702;10.622;2023-07-28T06:16:14;22.80;93.00
23731;DHT22;12046;44.702;10.622;2023-07-28T06:18:40;22.90;92.90
23731;DHT22;12046;44.702;10.622;2023-07-28T06:21:06;22.90;92.90
23731;DHT22;12046;44.702;10.622;2023-07-28T06:23:32;23.00;92.90
23731;DHT22;12046;44.702;10.622;2023-07-28T06:25:58;23.00;92.90
23731;DHT22;12046;44.702;10.622;2023-07-28T06:28:24;23.10;92.90
23731;DHT22;12046;44.702;10.622;2023-07-28T06:30:54;23.10;92.80
23731;DHT22;12046;44.702;10.622;2023-07-28T06:33:28;23.20;92.80
23731;DHT22;12046;44.702;10.622;2023-07-28T06:35:54;23.30;92.80
23731;DHT22;12046;44.702;10.622;2023-07-28T06:38:20;23.30;92.80
23731;DHT22;12046;44.702;10.622;2023-07-28T06:40:46;23.30;92.70
23731;DHT22;12046;44.702;10.622;2023-07-28T06:43:12;23.30;92.70
23731;DHT22;12046;44.702;10.622;2023-07-28T06:45:38;23.30;92.70
23731;DHT22;12046;44.702;10.622;2023-07-28T06:48:04;23.30;92.80
23731;DHT22;12046;44.702;10.622;2023-07-28T06:50:30;23.30;92.90
23731;DHT22;12046;44.702;10.622;2023-07-28T06:52:57;23.20;92.90
23731;DHT22;12046;44.702;10.622;2023-07-28T06:55:23;23.30;93.00
23731;DHT22;12046;44.702;10.622;2023-07-28T06:57:49;23.30;93.00
23731;DHT22;12046;44.702;10.622;2023-07-28T07:00:15;23.30;93.00
23731;DHT22;12046;44.702;10.622;2023-07-28T07:02:41;23.30;93.10
23731;DHT22;12046;44.702;10.622;2023-07-28T07:05:07;23.40;93.10
23731;DHT22;12046;44.702;10.622;2023-07-28T07:07:33;23.50;93.10
23731;DHT22;12046;44.702;10.622;2023-07-28T07:09:59;23.60;93.10
23731;DHT22;12046;44.702;10.622;2023-07-28T07:12:25;23.60;93.10
23731;DHT22;12046;44.702;10.622;2023-07-28T07:14:54;23.60;92.90
23731;DHT22;12046;44.702;10.622;2023-07-28T07:17:20;23.60;92.80
23731;DHT22;12046;44.702;10.622;2023-07-28T07:19:45;23.50;92.80
23731;DHT22;12046;44.702;10.622;2023-07-28T07:22:14;23.40;92.80
23731;DHT22;12046;44.702;10.622;2023-07-28T07:24:40;23.50;92.90
23731;DHT22;12046;44.702;10.622;2023-07-28T07:27:06;23.40;92.90
23731;DHT22;12046;44.702;10.622;2023-07-28T07:29:32;23.50;92.90
23731;DHT22;12046;44.702;10.622;2023-07-28T07:31:57;23.60;92.90
23731;DHT22;12046;44.702;10.622;2023-07-28T07:34:23;23.70;92.80
23731;DHT22;12046;44.702;10.622;2023-07-28T07:36:50;23.80;92.50
23731;DHT22;12046;44.702;10.622;2023-07-28T07:39:16;23.90;92.30
23731;DHT22;12046;44.702;10.622;2023-07-28T07:41:41;24.00;92.10
23731;DHT22;12046;44.702;10.622;2023-07-28T07:44:07;24.20;92.10
23731;DHT22;12046;44.702;10.622;2023-07-28T07:46:33;24.20;92.00
23731;DHT22;12046;44.702;10.622;2023-07-28T07:48:59;24.30;91.90
23731;DHT22;12046;44.702;10.622;2023-07-28T07:51:36;24.40;91.70
23731;DHT22;12046;44.702;10.622;2023-07-28T07:54:02;24.50;91.60
23731;DHT22;12046;44.702;10.622;2023-07-28T07:56:28;24.70;91.50
23731;DHT22;12046;44.702;10.622;2023-07-28T07:58:54;24.80;91.40
23731;DHT22;12046;44.702;10.622;2023-07-28T08:01:22;24.90;91.30
23731;DHT22;12046;44.702;10.622;2023-07-28T08:03:48;25.00;91.20
23731;DHT22;12046;44.702;10.622;2023-07-28T08:06:14;25.10;91.10
23731;DHT22;12046;44.702;10.622;2023-07-28T08:08:40;25.20;91.00
23731;DHT22;12046;44.702;10.622;2023-07-28T08:11:10;25.30;90.80
23731;DHT22;12046;44.702;10.622;2023-07-28T08:13:36;25.40;90.70
23731;DHT22;12046;44.702;10.622;2023-07-28T08:16:05;25.60;90.70
23731;DHT22;12046;44.702;10.622;2023-07-28T08:18:31;25.80;90.60
23731;DHT22;12046;44.702;10.622;2023-07-28T08:20:56;26.00;90.40
23731;DHT22;12046;44.702;10.622;2023-07-28T08:23:22;26.20;89.80
23731;DHT22;12046;44.702;10.622;2023-07-28T08:25:48;26.40;89.10
23731;DHT22;12046;44.702;10.622;2023-07-28T08:28:14;26.50;88.60
23731;DHT22;12046;44.702;10.622;2023-07-28T08:30:39;26.60;88.30
23731;DHT22;12046;44.702;10.622;2023-07-28T08:33:11;26.80;88.10
23731;DHT22;12046;44.702;10.622;2023-07-28T08:35:37;26.90;87.90
23731;DHT22;12046;44.702;10.622;2023-07-28T08:38:03;27.10;87.90
23731;DHT22;12046;44.702;10.622;2023-07-28T08:40:29;27.30;88.00
23731;DHT22;12046;44.702;10.622;2023-07-28T08:42:54;27.50;87.20
23731;DHT22;12046;44.702;10.622;2023-07-28T08:45:21;27.60;86.50
23731;DHT22;12046;44.702;10.622;2023-07-28T08:47:49;27.80;86.50
23731;DHT22;12046;44.702;10.622;2023-07-28T08:50:15;27.90;86.20
23731;DHT22;12046;44.702;10.622;2023-07-28T08:52:44;28.00;86.00
23731;DHT22;12046;44.702;10.622;2023-07-28T08:55:10;28.10;85.80
23731;DHT22;12046;44.702;10.622;2023-07-28T08:57:35;28.20;85.60
23731;DHT22;12046;44.702;10.622;2023-07-28T09:00:11;28.30;85.60
23731;DHT22;12046;44.702;10.622;2023-07-28T09:02:40;28.40;85.50
23731;DHT22;12046;44.702;10.622;2023-07-28T09:05:06;28.40;85.20
23731;DHT22;12046;44.702;10.622;2023-07-28T09:07:36;28.50;85.20
23731;DHT22;12046;44.702;10.622;2023-07-28T09:10:03;28.70;85.20
23731;DHT22;12046;44.702;10.622;2023-07-28T09:12:34;28.80;85.00
23731;DHT22;12046;44.702;10.622;2023-07-28T09:15:09;28.90;84.80
23731;DHT22;12046;44.702;10.622;2023-07-28T09:17:44;29.00;84.60
23731;DHT22;12046;44.702;10.622;2023-07-28T09:20:14;29.20;84.30
23731;DHT22;12046;44.702;10.622;2023-07-28T09:22:41;29.30;83.80
23731;DHT22;12046;44.702;10.622;2023-07-28T09:25:15;29.40;83.20
23731;DHT22;12046;44.702;10.622;2023-07-28T09:27:41;29.40;83.10
23731;DHT22;12046;44.702;10.622;2023-07-28T09:30:07;29.50;83.10
23731;DHT22;12046;44.702;10.622;2023-07-28T09:32:33;29.70;83.00
23731;DHT22;12046;44.702;10.622;2023-07-28T09:35:13;29.80;82.60
23731;DHT22;12046;44.702;10.622;2023-07-28T09:37:45;29.90;82.30
23731;DHT22;12046;44.702;10.622;2023-07-28T09:40:12;30.10;81.60
23731;DHT22;12046;44.702;10.622;2023-07-28T09:42:41;30.10;81.20
23731;DHT22;12046;44.702;10.622;2023-07-28T09:45:08;30.20;80.00
23731;DHT22;12046;44.702;10.622;2023-07-28T09:47:37;30.10;78.90
23731;DHT22;12046;44.702;10.622;2023-07-28T09:50:05;30.10;78.50
23731;DHT22;12046;44.702;10.622;2023-07-28T09:52:42;30.00;78.10
23731;DHT22;12046;44.702;10.622;2023-07-28T09:55:10;29.90;77.80
23731;DHT22;12046;44.702;10.622;2023-07-28T09:57:52;29.80;77.70
23731;DHT22;12046;44.702;10.622;2023-07-28T10:00:23;29.80;78.00
23731;DHT22;12046;44.702;10.622;2023-07-28T10:02:50;29.70;78.20
23731;DHT22;12046;44.702;10.622;2023-07-28T10:05:16;29.80;78.50
23731;DHT22;12046;44.702;10.622;2023-07-28T10:07:48;29.80;78.70
23731;DHT22;12046;44.702;10.622;2023-07-28T10:10:14;29.90;78.80
23731;DHT22;12046;44.702;10.622;2023-07-28T10:12:46;30.00;78.80
23731;DHT22;12046;44.702;10.622;2023-07-28T10:15:15;30.20;78.30
23731;DHT22;12046;44.702;10.622;2023-07-28T10:17:44;30.30;77.80
23731;DHT22;12046;44.702;10.622;2023-07-28T10:20:43;30.50;77.70
23731;DHT22;12046;44.702;10.622;2023-07-28T10:23:15;30.70;76.90
23731;DHT22;12046;44.702;10.622;2023-07-28T10:25:43;30.80;77.00
23731;DHT22;12046;44.702;10.622;2023-07-28T10:30:57;31.10;76.60
23731;DHT22;12046;44.702;10.622;2023-07-28T10:33:30;31.10;76.20
23731;DHT22;12046;44.702;10.622;2023-07-28T10:35:58;31.10;75.90
23731;DHT22;12046;44.702;10.622;2023-07-28T10:38:31;31.10;75.90
23731;DHT22;12046;44.702;10.622;2023-07-28T10:41:17;31.10;75.60
23731;DHT22;12046;44.702;10.622;2023-07-28T10:43:45;31.10;75.10
23731;DHT22;12046;44.702;10.622;2023-07-28T10:46:17;31.20;75.20
23731;DHT22;12046;44.702;10.622;2023-07-28T10:48:44;31.30;75.30
23731;DHT22;12046;44.702;10.622;2023-07-28T10:51:11;31.40;74.10
23731;DHT22;12046;44.702;10.622;2023-07-28T10:53:38;31.50;73.40
23731;DHT22;12046;44.702;10.622;2023-07-28T10:56:04;31.50;72.80
23731;DHT22;12046;44.702;10.622;2023-07-28T10:58:33;31.50;72.70
23731;DHT22;12046;44.702;10.622;2023-07-28T11:01:00;31.60;72.90
23731;DHT22;12046;44.702;10.622;2023-07-28T11:03:28;31.60;72.80
23731;DHT22;12046;44.702;10.622;2023-07-28T11:05:55;31.60;72.70
23731;DHT22;12046;44.702;10.622;2023-07-28T11:08:22;31.70;71.80
23731;DHT22;12046;44.702;10.622;2023-07-28T11:10:48;31.70;71.70
23731;DHT22;12046;44.702;10.622;2023-07-28T11:13:14;31.70;71.90
23731;DHT22;12046;44.702;10.622;2023-07-28T11:15:40;31.80;71.90
23731;DHT22;12046;44.702;10.622;2023-07-28T11:18:06;31.90;71.60
23731;DHT22;12046;44.702;10.622;2023-07-28T11:20:32;31.90;71.30
23731;DHT22;12046;44.702;10.622;2023-07-28T11:23:00;32.00;70.30
23731;DHT22;12046;44.702;10.622;2023-07-28T11:25:28;32.00;70.00
23731;DHT22;12046;44.702;10.622;2023-07-28T11:27:55;31.90;70.20
23731;DHT22;12046;44.702;10.622;2023-07-28T11:30:22;31.80;70.40
23731;DHT22;12046;44.702;10.622;2023-07-28T11:32:49;31.70;70.50
23731;DHT22;12046;44.702;10.622;2023-07-28T11:35:22;31.70;70.50
23731;DHT22;12046;44.702;10.622;2023-07-28T11:37:52;31.70;70.70
23731;DHT22;12046;44.702;10.622;2023-07-28T11:40:23;31.60;70.70
23731;DHT22;12046;44.702;10.622;2023-07-28T11:42:53;31.60;71.00
23731;DHT22;12046;44.702;10.622;2023-07-28T11:45:20;31.70;70.90
23731;DHT22;12046;44.702;10.622;2023-07-28T11:50:34;31.80;71.20
23731;DHT22;12046;44.702;10.622;2023-07-28T11:53:03;31.90;71.30
23731;DHT22;12046;44.702;10.622;2023-07-28T11:55:30;32.00;71.10
23731;DHT22;12046;44.702;10.622;2023-07-28T11:57:56;32.10;71.00
23731;DHT22;12046;44.702;10.622;2023-07-28T12:00:29;32.10;70.90
23731;DHT22;12046;44.702;10.622;2023-07-28T12:03:05;32.20;70.80
23731;DHT22;12046;44.702;10.622;2023-07-28T12:05:32;32.30;70.40
23731;DHT22;12046;44.702;10.622;2023-07-28T12:07:58;32.30;70.20
23731;DHT22;12046;44.702;10.622;2023-07-28T12:10:24;32.20;69.90
23731;DHT22;12046;44.702;10.622;2023-07-28T12:12:50;32.20;70.00
23731;DHT22;12046;44.702;10.622;2023-07-28T12:15:27;32.10;69.90
23731;DHT22;12046;44.702;10.622;2023-07-28T12:18:12;32.10;69.90
23731;DHT22;12046;44.702;10.622;2023-07-28T12:20:49;32.00;70.10
23731;DHT22;12046;44.702;10.622;2023-07-28T12:23:22;32.00;70.40
23731;DHT22;12046;44.702;10.622;2023-07-28T12:25:49;32.10;70.50
23731;DHT22;12046;44.702;10.622;2023-07-28T12:28:26;32.10;70.30
23731;DHT22;12046;44.702;10.622;2023-07-28T12:30:55;32.20;70.30
23731;DHT22;12046;44.702;10.622;2023-07-28T12:33:21;32.20;70.30
23731;DHT22;12046;44.702;10.622;2023-07-28T12:35:48;32.20;70.20
23731;DHT22;12046;44.702;10.622;2023-07-28T12:38:14;32.30;71.00
23731;DHT22;12046;44.702;10.622;2023-07-28T12:40:39;32.40;70.20
23731;DHT22;12046;44.702;10.622;2023-07-28T12:43:05;32.50;69.80
23731;DHT22;12046;44.702;10.622;2023-07-28T12:45:32;32.60;69.70
23731;DHT22;12046;44.702;10.622;2023-07-28T12:47:58;32.70;69.80
23731;DHT22;12046;44.702;10.622;2023-07-28T12:50:25;32.80;69.80
23731;DHT22;12046;44.702;10.622;2023-07-28T12:52:54;32.90;69.50
23731;DHT22;12046;44.702;10.622;2023-07-28T12:55:21;32.90;69.20
23731;DHT22;12046;44.702;10.622;2023-07-28T12:57:46;32.90;69.00
23731;DHT22;12046;44.702;10.622;2023-07-28T13:00:14;32.90;69.00
23731;DHT22;12046;44.702;10.622;2023-07-28T13:02:44;32.90;69.10
23731;DHT22;12046;44.702;10.622;2023-07-28T13:05:12;33.10;68.90
23731;DHT22;12046;44.702;10.622;2023-07-28T13:07:39;33.10;68.80
23731;DHT22;12046;44.702;10.622;2023-07-28T13:10:09;33.20;68.80
23731;DHT22;12046;44.702;10.622;2023-07-28T13:12:36;33.30;68.50
23731;DHT22;12046;44.702;10.622;2023-07-28T13:15:03;33.30;68.30
23731;DHT22;12046;44.702;10.622;2023-07-28T13:17:28;33.30;68.00
23731;DHT22;12046;44.702;10.622;2023-07-28T13:19:56;33.20;68.20
23731;DHT22;12046;44.702;10.622;2023-07-28T13:22:23;33.10;68.20
23731;DHT22;12046;44.702;10.622;2023-07-28T13:24:49;33.20;68.20
23731;DHT22;12046;44.702;10.622;2023-07-28T13:27:15;33.10;67.90
23731;DHT22;12046;44.702;10.622;2023-07-28T13:29:41;33.10;67.90
23731;DHT22;12046;44.702;10.622;2023-07-28T13:32:22;33.00;67.70
23731;DHT22;12046;44.702;10.622;2023-07-28T13:34:51;33.00;67.60
23731;DHT22;12046;44.702;10.622;2023-07-28T13:37:20;32.80;67.70
23731;DHT22;12046;44.702;10.622;2023-07-28T13:39:46;32.70;68.00
23731;DHT22;12046;44.702;10.622;2023-07-28T13:42:12;32.60;68.20
23731;DHT22;12046;44.702;10.622;2023-07-28T13:44:41;32.60;68.60
23731;DHT22;12046;44.702;10.622;2023-07-28T13:47:07;32.60;68.60
23731;DHT22;12046;44.702;10.622;2023-07-28T13:49:33;32.70;68.70
23731;DHT22;12046;44.702;10.622;2023-07-28T13:52:07;32.90;68.80
23731;DHT22;12046;44.702;10.622;2023-07-28T13:54:33;33.00;68.50
23731;DHT22;12046;44.702;10.622;2023-07-28T13:56:58;33.20;68.50
23731;DHT22;12046;44.702;10.622;2023-07-28T13:59:24;33.20;68.50
23731;DHT22;12046;44.702;10.622;2023-07-28T14:01:50;33.30;68.50
23731;DHT22;12046;44.702;10.622;2023-07-28T14:04:16;33.50;68.30
23731;DHT22;12046;44.702;10.622;2023-07-28T14:06:41;33.60;67.80
23731;DHT22;12046;44.702;10.622;2023-07-28T14:09:07;33.70;67.40
23731;DHT22;12046;44.702;10.622;2023-07-28T14:11:34;33.70;67.40
23731;DHT22;12046;44.702;10.622;2023-07-28T14:14:00;33.60;67.40
23731;DHT22;12046;44.702;10.622;2023-07-28T14:16:26;33.50;67.50
23731;DHT22;12046;44.702;10.622;2023-07-28T14:18:52;33.60;67.70
23731;DHT22;12046;44.702;10.622;2023-07-28T14:21:21;33.60;67.80
23731;DHT22;12046;44.702;10.622;2023-07-28T14:23:46;33.60;67.80
23731;DHT22;12046;44.702;10.622;2023-07-28T14:26:12;33.60;67.70
23731;DHT22;12046;44.702;10.622;2023-07-28T14:28:46;33.60;67.80
23731;DHT22;12046;44.702;10.622;2023-07-28T14:31:11;33.50;67.50
23731;DHT22;12046;44.702;10.622;2023-07-28T14:33:37;33.50;67.50
23731;DHT22;12046;44.702;10.622;2023-07-28T14:36:14;33.40;67.40
23731;DHT22;12046;44.702;10.622;2023-07-28T14:38:50;33.30;67.50
23731;DHT22;12046;44.702;10.622;2023-07-28T14:41:16;33.10;67.60
23731;DHT22;12046;44.702;10.622;2023-07-28T14:43:42;33.00;67.80
23731;DHT22;12046;44.702;10.622;2023-07-28T14:46:08;33.00;68.10
23731;DHT22;12046;44.702;10.622;2023-07-28T14:48:34;33.00;68.30
23731;DHT22;12046;44.702;10.622;2023-07-28T14:51:00;32.90;68.60
23731;DHT22;12046;44.702;10.622;2023-07-28T14:53:31;33.00;68.80
23731;DHT22;12046;44.702;10.622;2023-07-28T14:56:06;33.00;69.00
23731;DHT22;12046;44.702;10.622;2023-07-28T14:58:33;33.10;69.10
23731;DHT22;12046;44.702;10.622;2023-07-28T15:00:59;33.20;69.30
23731;DHT22;12046;44.702;10.622;2023-07-28T15:03:27;33.20;68.90
23731;DHT22;12046;44.702;10.622;2023-07-28T15:05:56;33.30;68.90
23731;DHT22;12046;44.702;10.622;2023-07-28T15:08:22;33.30;68.80
23731;DHT22;12046;44.702;10.622;2023-07-28T15:10:51;33.40;68.70
23731;DHT22;12046;44.702;10.622;2023-07-28T15:13:17;33.40;68.60
23731;DHT22;12046;44.702;10.622;2023-07-28T15:15:46;33.50;68.80
23731;DHT22;12046;44.702;10.622;2023-07-28T15:18:15;33.50;68.90
23731;DHT22;12046;44.702;10.622;2023-07-28T15:20:42;33.50;68.80
23731;DHT22;12046;44.702;10.622;2023-07-28T15:23:13;33.60;68.90
23731;DHT22;12046;44.702;10.622;2023-07-28T15:25:42;33.70;69.10